Date,TemperatureHighF,TemperatureAvgF,TemperatureLowF,DewpointHighF,DewpointAvgF,DewpointLowF,HumidityHigh,HumidityAvg,HumidityLow,PressureMaxIn,PressureMinIn,WindSpeedMaxMPH,WindSpeedAvgMPH,GustSpeedMaxMPH,PrecipitationSumIn
2013-1-1,24.4,16.8,11.1,19.3,13.8,9.2,94,88,80,30.49,30.30,14,2,14,0.00
2013-1-2,34.9,25.4,11.1,28.7,20.6,7.4,90,82,71,30.45,30.27,16,3,16,0.00
2013-1-3,29.0,23.6,15.8,23.7,18.7,12.6,91,81,65,30.58,30.44,13,3,13,0.00
2013-1-4,34.8,19.2,10.6,21.5,13.0,6.8,89,77,55,30.47,30.28,10,3,10,0.00
2013-1-5,41.8,25.8,9.7,28.8,17.9,6.6,88,73,58,30.43,30.21,19,4,19,0.01
2013-1-6,39.7,26.5,15.1,26.1,19.3,11.9,88,75,57,30.49,30.20,17,3,17,0.00
2013-1-7,39.1,29.7,20.5,27.5,23.7,19.0,95,79,60,30.20,30.07,19,2,19,0.00
2013-1-8,40.7,26.3,12.7,33.0,22.6,10.5,95,86,69,30.36,29.99,10,1,10,0.00
2013-1-9,44.8,32.6,21.7,31.7,26.4,19.0,91,78,59,30.56,30.35,14,2,14,0.00
2013-1-10,38.4,34.6,30.2,34.6,31.5,26.0,98,89,67,30.44,29.75,13,3,13,0.09
2013-1-11,40.3,34.2,20.5,39.8,32.9,14.7,99,95,76,29.95,29.47,27,4,27,0.02
2013-1-12,20.4,15.0,8.4,14.6,7.2,3.7,82,71,58,30.37,29.95,27,7,27,0.00
2013-1-13,21.1,12.1,4.9,8.9,4.5,0.1,82,72,50,30.55,30.36,15,4,15,0.00
2013-1-14,26.2,15.2,5.0,13.9,8.2,1.0,84,74,56,30.66,30.52,12,2,12,0.00
2013-1-15,30.5,21.0,13.3,18.8,13.8,8.8,89,74,57,30.53,30.20,17,4,17,0.00
2013-1-16,52.8,37.3,19.8,31.6,26.4,12.4,86,67,38,30.42,30.12,21,4,21,0.00
2013-1-17,48.4,35.7,26.7,33.8,28.5,23.1,89,76,54,30.59,30.36,11,3,11,0.00
2013-1-18,50.8,38.8,32.0,35.2,29.8,26.2,79,70,51,30.36,30.02,16,4,16,0.00
2013-1-19,55.4,40.9,32.9,29.5,27.0,25.0,81,60,32,30.20,30.00,21,5,24,0.00
2013-1-20,21.8,19.5,18.7,12.8,11.1,9.4,77,70,61,30.59,30.55,9,2,9,0.00
2013-1-21,21.7,14.3,11.8,15.1,8.9,6.0,84,79,71,30.62,30.50,11,2,11,0.00
2013-1-22,26.3,18.6,12.6,16.1,10.4,5.2,78,70,60,30.54,30.38,12,3,12,0.00
2013-1-23,34.4,22.8,12.3,21.8,14.9,4.0,86,72,56,30.66,30.30,18,3,18,0.00
2013-1-24,20.9,13.3,4.8,10.6,4.5,-0.5,84,68,50,30.66,30.32,14,4,15,0.00
2013-1-25,52.7,33.2,16.1,31.3,22.3,10.5,85,66,33,30.43,30.30,10,2,10,0.00
2013-1-26,53.9,39.5,26.4,36.7,27.4,22.4,85,64,37,30.32,30.02,20,4,20,0.00
2013-1-27,42.6,39.3,35.4,41.1,38.4,35.0,99,97,80,30.02,29.76,15,2,15,0.07
2013-1-28,37.2,34.2,29.8,37.2,34.2,29.5,100,100,99,29.92,29.72,17,1,17,0.02
2013-1-29,35.2,32.8,29.1,32.2,30.1,25.5,99,90,72,29.90,29.76,20,5,20,0.00
2013-1-30,28.9,22.2,19.3,27.5,15.5,11.8,95,75,65,30.09,29.88,29,6,29,0.00
2013-1-31,21.0,13.5,8.7,14.4,3.2,-3.4,82,64,47,30.60,30.09,28,5,28,0.00